Time;durP1;ratioP1;P1;durP2;ratioP2;P2;SDS_P1;SDS_P2;PMS_P1;PMS_P2;Temp;Humidity;BMP_temperature;BMP_pressure;BME280_temperature;BME280_humidity;BME280_pressure;Samples;Min_cycle;Max_cycle;Signal;HPM_P1;HPM_P2
2023/09/25 00:00:30;;;;;;;7.23;6.63;;;11.90;1.00;;;;;;5113935;28;20481;-81
2023/09/25 00:02:59;;;;;;;8.20;7.50;;;11.80;1.00;;;;;;5110238;27;20450;-82
2023/09/25 00:05:27;;;;;;;8.40;7.70;;;11.80;1.00;;;;;;5110239;28;20430;-82
2023/09/25 00:07:54;;;;;;;7.73;7.07;;;11.80;1.00;;;;;;5114899;28;20461;-81
2023/09/25 00:10:22;;;;;;;8.30;7.50;;;11.80;1.00;;;;;;5114743;28;20457;-82
2023/09/25 00:12:50;;;;;;;9.47;8.60;;;11.80;1.00;;;;;;5113972;28;20458;-82
2023/09/25 00:15:20;;;;;;;7.73;7.03;;;11.80;1.00;;;;;;5113816;28;20504;-82
2023/09/25 00:17:49;;;;;;;9.47;7.77;;;11.80;1.00;;;;;;5114943;28;20477;-83
2023/09/25 00:20:20;;;;;;;8.53;7.63;;;11.80;1.00;;;;;;5116028;27;20461;-83
2023/09/25 00:22:49;;;;;;;8.70;7.80;;;11.80;1.00;;;;;;5113898;28;20474;-82
2023/09/25 00:25:18;;;;;;;8.50;7.80;;;11.80;1.00;;;;;;5114423;28;20490;-83
2023/09/25 00:27:46;;;;;;;10.07;7.90;;;11.70;1.00;;;;;;5110838;28;20516;-83
2023/09/25 00:30:17;;;;;;;8.53;7.40;;;11.80;1.00;;;;;;5110201;28;20461;-82
2023/09/25 00:32:44;;;;;;;8.80;8.10;;;11.70;1.00;;;;;;5111044;28;20466;-81
2023/09/25 00:35:11;;;;;;;7.63;6.90;;;11.70;1.00;;;;;;5113589;28;20557;-82
2023/09/25 00:37:38;;;;;;;9.10;8.20;;;11.60;1.00;;;;;;5114228;28;20539;-82
2023/09/25 00:40:13;;;;;;;9.03;8.23;;;11.70;1.00;;;;;;5093935;28;20524;-83
2023/09/25 00:42:41;;;;;;;8.90;8.20;;;11.70;1.00;;;;;;5113795;27;20492;-83
2023/09/25 00:45:10;;;;;;;9.03;8.23;;;11.60;1.00;;;;;;5112231;28;21265;-82
2023/09/25 00:47:39;;;;;;;9.33;8.40;;;11.60;1.00;;;;;;5081276;28;20558;-82
2023/09/25 00:50:08;;;;;;;8.57;7.70;;;11.60;1.00;;;;;;5112950;27;20556;-81
2023/09/25 00:52:46;;;;;;;7.80;7.10;;;11.60;1.00;;;;;;5112905;28;20460;-82
2023/09/25 00:55:15;;;;;;;8.67;7.87;;;11.60;1.00;;;;;;5113035;28;20962;-81
2023/09/25 00:57:43;;;;;;;8.67;7.87;;;11.60;1.00;;;;;;5111249;27;20482;-81
2023/09/25 01:00:13;;;;;;;8.57;7.87;;;11.60;1.00;;;;;;5113340;28;20458;-82
2023/09/25 01:02:42;;;;;;;8.70;7.90;;;11.50;1.00;;;;;;5112378;28;20450;-82
2023/09/25 01:05:11;;;;;;;9.60;8.60;;;11.50;1.00;;;;;;5114212;28;20529;-82
2023/09/25 01:07:39;;;;;;;8.53;7.73;;;11.60;1.00;;;;;;5114153;28;20484;-82
2023/09/25 01:10:09;;;;;;;8.40;7.50;;;11.60;1.00;;;;;;5113759;28;20495;-82
2023/09/25 01:12:37;;;;;;;9.20;8.13;;;11.50;1.00;;;;;;5111898;28;20457;-81
2023/09/25 01:15:06;;;;;;;9.30;8.47;;;11.50;1.00;;;;;;5113446;28;20445;-82
2023/09/25 01:17:34;;;;;;;8.33;7.63;;;11.50;1.00;;;;;;5113930;28;20883;-81
2023/09/25 01:20:12;;;;;;;10.10;9.10;;;11.50;1.00;;;;;;5113322;28;20942;-80
2023/09/25 01:22:42;;;;;;;9.03;8.13;;;11.50;1.00;;;;;;5092971;28;20477;-82
2023/09/25 01:25:10;;;;;;;9.80;8.10;;;11.40;1.00;;;;;;5113677;28;20531;-83
2023/09/25 01:27:38;;;;;;;10.00;9.03;;;11.40;1.00;;;;;;5112063;28;20468;-81
2023/09/25 01:30:08;;;;;;;8.80;8.00;;;11.40;1.00;;;;;;5113900;27;20511;-82
2023/09/25 01:32:37;;;;;;;9.30;8.40;;;11.40;1.00;;;;;;5113489;28;20467;-81
2023/09/25 01:35:05;;;;;;;8.57;7.77;;;11.40;1.00;;;;;;5111203;28;20449;-82
2023/09/25 01:37:32;;;;;;;9.70;8.70;;;11.40;1.00;;;;;;5110836;27;20464;-82
2023/09/25 01:40:01;;;;;;;9.27;8.47;;;11.40;1.00;;;;;;5112690;28;20511;-81
2023/09/25 01:42:28;;;;;;;10.40;9.43;;;11.40;1.00;;;;;;5110513;27;20440;-82
2023/09/25 01:44:55;;;;;;;11.53;8.70;;;11.40;1.00;;;;;;5109492;27;20470;-81
2023/09/25 01:47:22;;;;;;;9.27;8.37;;;11.40;1.00;;;;;;5112305;28;20482;-81
2023/09/25 01:49:50;;;;;;;9.03;8.23;;;11.40;1.00;;;;;;5111023;27;21176;-82
2023/09/25 01:52:18;;;;;;;8.57;7.60;;;11.40;1.00;;;;;;5109269;28;20531;-81
2023/09/25 01:54:46;;;;;;;9.10;8.20;;;11.30;1.00;;;;;;5111015;27;20507;-81
2023/09/25 01:57:15;;;;;;;9.40;8.50;;;11.30;1.00;;;;;;5112753;27;20458;-82
2023/09/25 01:59:42;;;;;;;9.40;8.50;;;11.20;1.00;;;;;;5110196;27;20464;-82
2023/09/25 02:02:09;;;;;;;9.80;8.90;;;11.20;1.00;;;;;;5109681;28;20461;-83
2023/09/25 02:04:37;;;;;;;9.83;9.00;;;11.20;1.00;;;;;;5109098;28;20444;-80
2023/09/25 02:07:04;;;;;;;9.40;8.60;;;11.10;1.00;;;;;;5110902;28;21240;-81
2023/09/25 02:09:31;;;;;;;10.23;9.00;;;11.10;1.00;;;;;;5109667;28;20534;-81
2023/09/25 02:11:58;;;;;;;10.07;9.17;;;11.10;1.00;;;;;;5106833;27;20464;-81
2023/09/25 02:14:29;;;;;;;9.87;9.00;;;11.20;1.00;;;;;;5113422;28;20458;-85
2023/09/25 02:16:56;;;;;;;10.17;9.17;;;11.20;1.00;;;;;;5111499;28;21015;-83
2023/09/25 02:19:25;;;;;;;10.30;9.30;;;11.20;1.00;;;;;;5110546;28;20632;-81
2023/09/25 02:21:52;;;;;;;9.13;7.90;;;11.10;1.00;;;;;;5111886;27;20607;-81
2023/09/25 02:24:19;;;;;;;10.03;9.03;;;11.10;1.00;;;;;;5115595;28;20662;-82
2023/09/25 02:26:49;;;;;;;9.37;8.47;;;11.10;1.00;;;;;;5114432;28;20457;-82
2023/09/25 02:29:16;;;;;;;9.53;8.60;;;11.20;1.00;;;;;;5116760;27;20446;-81
2023/09/25 02:31:44;;;;;;;10.93;8.30;;;11.10;1.00;;;;;;5110677;27;20516;-83
2023/09/25 02:34:14;;;;;;;10.73;9.63;;;11.10;1.00;;;;;;5115687;28;20458;-82
2023/09/25 02:36:41;;;;;;;9.10;8.20;;;11.00;1.00;;;;;;5117834;28;20470;-81
2023/09/25 02:39:08;;;;;;;10.57;9.67;;;11.00;1.00;;;;;;5116356;27;21078;-81
2023/09/25 02:41:36;;;;;;;8.73;7.93;;;10.90;1.00;;;;;;5115795;27;20458;-83
2023/09/25 02:44:05;;;;;;;10.27;9.37;;;10.90;1.00;;;;;;5115621;28;20511;-82
2023/09/25 02:46:32;;;;;;;10.73;9.73;;;10.90;1.00;;;;;;5115142;28;20490;-82
2023/09/25 02:49:01;;;;;;;10.33;9.30;;;10.90;1.00;;;;;;5114944;28;20522;-81
2023/09/25 02:51:28;;;;;;;9.10;8.30;;;10.90;1.00;;;;;;5116567;28;20533;-86
2023/09/25 02:53:55;;;;;;;11.70;10.33;;;10.90;1.00;;;;;;5118674;27;20487;-87
2023/09/25 02:56:22;;;;;;;10.10;9.07;;;10.90;1.00;;;;;;5120122;28;20442;-89
2023/09/25 02:58:50;;;;;;;13.63;9.00;;;10.80;1.00;;;;;;5117137;27;20449;-86
2023/09/25 03:01:17;;;;;;;10.63;9.63;;;10.80;1.00;;;;;;5121716;28;20991;-86
2023/09/25 03:03:44;;;;;;;12.63;10.57;;;10.80;1.00;;;;;;5118440;28;20515;-85
2023/09/25 03:06:13;;;;;;;10.43;9.03;;;10.80;1.00;;;;;;5119754;28;20452;-86
2023/09/25 03:08:40;;;;;;;11.07;10.07;;;10.70;1.00;;;;;;5118086;28;20469;-82
2023/09/25 03:11:06;;;;;;;11.00;9.60;;;10.70;1.00;;;;;;5118571;28;20447;-87
2023/09/25 03:13:33;;;;;;;10.30;9.30;;;10.70;1.00;;;;;;5117544;27;20461;-86
2023/09/25 03:16:00;;;;;;;10.83;9.70;;;10.70;1.00;;;;;;5117296;27;20433;-86
2023/09/25 03:18:28;;;;;;;10.93;9.83;;;10.70;1.00;;;;;;5118844;27;20543;-87
2023/09/25 03:20:55;;;;;;;10.87;9.87;;;10.60;1.00;;;;;;5118157;28;20454;-86
2023/09/25 03:23:33;;;;;;;10.97;9.87;;;10.60;1.00;;;;;;5120302;28;20536;-87
2023/09/25 03:26:03;;;;;;;12.53;10.27;;;10.60;1.00;;;;;;5121047;27;20449;-86
2023/09/25 03:28:32;;;;;;;11.23;10.23;;;10.60;1.00;;;;;;5104618;28;20463;-87
2023/09/25 03:31:00;;;;;;;12.30;10.20;;;10.60;1.00;;;;;;5104511;27;21349;-85
2023/09/25 03:33:27;;;;;;;11.87;10.67;;;10.60;1.00;;;;;;5114687;27;20882;-84
2023/09/25 03:35:54;;;;;;;10.33;9.43;;;10.60;1.00;;;;;;5116643;28;20462;-83
2023/09/25 03:38:23;;;;;;;12.77;10.83;;;10.60;1.00;;;;;;5118916;27;21306;-87
2023/09/25 03:40:50;;;;;;;11.60;10.50;;;10.50;1.00;;;;;;5119313;28;21747;-87
2023/09/25 03:43:17;;;;;;;12.77;11.67;;;10.50;1.00;;;;;;5118497;28;20742;-85
2023/09/25 03:45:44;;;;;;;11.93;10.70;;;10.50;1.00;;;;;;5095182;28;20459;-86
2023/09/25 03:48:11;;;;;;;14.27;11.00;;;10.50;1.00;;;;;;5107564;28;20496;-85
2023/09/25 03:50:38;;;;;;;12.73;11.00;;;10.50;1.00;;;;;;5119916;28;20449;-87
2023/09/25 03:53:05;;;;;;;13.30;11.87;;;10.50;1.00;;;;;;5118952;28;20414;-83
2023/09/25 03:55:34;;;;;;;12.30;10.97;;;10.50;1.00;;;;;;5117432;27;20469;-85
2023/09/25 03:58:00;;;;;;;12.90;11.40;;;10.50;1.00;;;;;;5113887;28;20446;-85
2023/09/25 04:00:29;;;;;;;11.57;10.33;;;10.50;1.00;;;;;;5115854;27;20453;-84
2023/09/25 04:02:55;;;;;;;14.70;13.17;;;10.50;1.00;;;;;;5116189;27;20780;-84
2023/09/25 04:05:23;;;;;;;13.93;12.60;;;10.40;1.00;;;;;;5112920;27;20489;-83
2023/09/25 04:07:50;;;;;;;12.27;11.07;;;10.50;1.00;;;;;;5110636;28;20484;-84
2023/09/25 04:10:19;;;;;;;11.87;10.67;;;10.50;1.00;;;;;;5118048;27;20480;-83
2023/09/25 04:12:48;;;;;;;12.03;10.93;;;10.50;1.00;;;;;;5113185;27;21054;-85
2023/09/25 04:15:16;;;;;;;14.10;10.30;;;10.40;1.00;;;;;;5116884;28;20512;-84
2023/09/25 04:17:43;;;;;;;13.43;11.60;;;10.40;1.00;;;;;;5118394;27;20451;-84
2023/09/25 04:20:17;;;;;;;12.10;10.90;;;10.40;1.00;;;;;;5116494;28;20453;-84
2023/09/25 04:22:45;;;;;;;11.70;10.57;;;10.40;1.00;;;;;;5102518;28;20468;-84
2023/09/25 04:25:18;;;;;;;11.33;10.17;;;10.40;1.00;;;;;;5114401;28;20466;-85
2023/09/25 04:27:53;;;;;;;11.53;10.43;;;10.50;1.00;;;;;;5116080;27;21025;-85
2023/09/25 04:30:21;;;;;;;12.93;11.30;;;10.40;1.00;;;;;;5116924;28;20449;-85
2023/09/25 04:32:55;;;;;;;11.73;10.47;;;10.40;1.00;;;;;;5120316;27;20460;-84
2023/09/25 04:35:29;;;;;;;12.10;10.90;;;10.40;1.00;;;;;;5121978;27;20456;-84
2023/09/25 04:37:56;;;;;;;14.03;12.53;;;10.40;1.00;;;;;;5120875;28;20503;-84
2023/09/25 04:40:30;;;;;;;20.03;16.53;;;10.30;1.00;;;;;;5123441;28;20458;-82
2023/09/25 04:43:00;;;;;;;12.30;11.03;;;10.30;1.00;;;;;;5108075;27;20443;-85
2023/09/25 04:45:29;;;;;;;12.30;11.00;;;10.30;1.00;;;;;;5118418;27;20989;-86
2023/09/25 04:47:57;;;;;;;13.63;12.33;;;10.30;1.00;;;;;;5105933;28;20485;-84
2023/09/25 04:50:24;;;;;;;12.63;11.33;;;10.40;1.00;;;;;;5107737;28;20453;-82
2023/09/25 04:52:56;;;;;;;12.50;11.33;;;10.50;1.00;;;;;;5117385;28;20414;-86
2023/09/25 04:55:23;;;;;;;12.13;10.97;;;10.50;1.00;;;;;;5119260;28;20438;-84
2023/09/25 04:57:52;;;;;;;12.60;11.30;;;10.50;1.00;;;;;;5116028;28;20496;-86
2023/09/25 05:00:43;;;;;;;13.40;12.10;;;10.50;1.00;;;;;;5118828;28;20662;-85
2023/09/25 05:03:15;;;;;;;11.90;10.80;;;10.50;1.00;;;;;;5109195;27;20422;-85
2023/09/25 05:05:42;;;;;;;12.60;11.37;;;10.50;1.00;;;;;;5105085;27;20598;-83
2023/09/25 05:08:10;;;;;;;12.67;11.50;;;10.40;1.00;;;;;;5102449;28;20450;-85
2023/09/25 05:10:41;;;;;;;12.50;11.20;;;10.50;1.00;;;;;;5093691;28;21222;-85
2023/09/25 05:13:09;;;;;;;12.60;11.43;;;10.50;1.00;;;;;;5094300;28;20562;-84
2023/09/25 05:15:39;;;;;;;16.80;15.30;;;10.50;1.00;;;;;;5094856;28;20477;-83
2023/09/25 05:20:51;;;;;;;12.37;11.07;;;10.50;1.00;;;;;;5089026;27;20454;-84
2023/09/25 05:23:20;;;;;;;11.93;10.83;;;10.60;1.00;;;;;;5094197;28;21007;-82
2023/09/25 05:25:49;;;;;;;11.40;10.40;;;10.50;1.00;;;;;;5089706;28;20608;-82
2023/09/25 05:28:15;;;;;;;14.10;12.17;;;10.60;1.00;;;;;;5095511;27;20465;-84
2023/09/25 05:30:44;;;;;;;12.20;10.53;;;10.60;1.00;;;;;;5094363;28;20455;-83
2023/09/25 05:33:12;;;;;;;15.03;10.80;;;10.60;1.00;;;;;;5099651;28;20501;-84
2023/09/25 05:35:39;;;;;;;11.70;9.83;;;10.60;1.00;;;;;;5098153;28;20498;-84
2023/09/25 05:38:06;;;;;;;13.33;11.90;;;10.70;1.00;;;;;;5093995;27;20429;-86
2023/09/25 05:40:34;;;;;;;13.60;12.30;;;10.70;1.00;;;;;;5101060;28;20463;-86
2023/09/25 05:43:02;;;;;;;12.07;10.80;;;10.70;1.00;;;;;;5094778;27;20479;-85
2023/09/25 05:45:29;;;;;;;11.70;10.07;;;10.80;1.00;;;;;;5095777;28;21346;-82
2023/09/25 05:47:59;;;;;;;11.53;10.40;;;10.80;1.00;;;;;;5096982;27;21297;-84
2023/09/25 05:50:28;;;;;;;11.83;10.63;;;10.90;1.00;;;;;;5098172;28;20466;-88
2023/09/25 05:52:56;;;;;;;11.87;10.67;;;11.00;1.00;;;;;;5100383;28;20446;-85
2023/09/25 05:55:23;;;;;;;12.13;10.90;;;11.00;1.00;;;;;;5098836;28;20565;-83
2023/09/25 05:57:50;;;;;;;42.70;36.13;;;11.10;1.00;;;;;;5097659;28;20423;-83
2023/09/25 06:00:18;;;;;;;11.70;10.57;;;11.20;1.00;;;;;;5097620;27;20439;-85
2023/09/25 06:02:46;;;;;;;14.23;10.90;;;11.20;1.00;;;;;;5091245;28;20538;-81
2023/09/25 06:05:15;;;;;;;11.33;10.23;;;11.20;1.00;;;;;;5107174;28;20466;-87
2023/09/25 06:07:43;;;;;;;14.00;10.00;;;11.30;1.00;;;;;;5115138;27;20422;-85
2023/09/25 06:10:11;;;;;;;13.00;11.63;;;11.30;1.00;;;;;;5115410;27;20454;-85
2023/09/25 06:12:40;;;;;;;12.90;11.30;;;11.30;1.00;;;;;;5115631;27;20702;-83
2023/09/25 06:15:10;;;;;;;10.87;9.77;;;11.40;1.00;;;;;;5113788;27;20537;-88
2023/09/25 06:17:37;;;;;;;11.73;10.47;;;11.50;1.00;;;;;;5117068;27;20512;-86
2023/09/25 06:20:14;;;;;;;13.27;11.30;;;11.60;1.00;;;;;;5114217;28;20494;-83
2023/09/25 06:22:44;;;;;;;11.70;10.23;;;11.60;1.00;;;;;;5114385;28;20580;-82
2023/09/25 06:25:14;;;;;;;13.00;11.70;;;11.60;1.00;;;;;;5115397;28;20477;-84
2023/09/25 06:27:44;;;;;;;14.23;10.70;;;11.70;1.00;;;;;;5117104;27;20504;-85
2023/09/25 06:30:19;;;;;;;15.70;11.37;;;11.80;1.00;;;;;;5114978;27;20469;-89
2023/09/25 06:32:47;;;;;;;11.67;10.57;;;11.80;1.00;;;;;;5111645;27;21244;-86
2023/09/25 06:35:14;;;;;;;13.37;12.00;;;11.90;1.00;;;;;;5095367;27;20469;-85
2023/09/25 06:37:44;;;;;;;12.50;11.20;;;12.00;1.00;;;;;;5098694;27;20469;-82
2023/09/25 06:40:15;;;;;;;11.97;10.80;;;12.10;1.00;;;;;;5119684;27;20500;-86
2023/09/25 06:42:43;;;;;;;13.07;11.77;;;12.00;1.00;;;;;;5115926;27;21164;-84
2023/09/25 06:45:10;;;;;;;13.03;11.83;;;12.10;1.00;;;;;;5118529;27;20426;-82
2023/09/25 06:47:41;;;;;;;11.80;10.47;;;12.00;1.00;;;;;;5113057;27;21220;-84
2023/09/25 06:50:10;;;;;;;11.97;10.77;;;12.10;1.00;;;;;;5109664;27;20474;-82
2023/09/25 06:52:37;;;;;;;12.80;10.50;;;12.20;1.00;;;;;;5110955;28;20445;-81
2023/09/25 06:55:13;;;;;;;13.70;12.30;;;12.20;1.00;;;;;;5116818;28;20438;-84
2023/09/25 06:57:40;;;;;;;11.37;10.13;;;12.30;1.00;;;;;;5116554;28;20522;-82
2023/09/25 07:00:09;;;;;;;11.90;10.70;;;12.40;1.00;;;;;;5108377;27;20433;-84
2023/09/25 07:02:37;;;;;;;11.73;10.63;;;12.40;1.00;;;;;;5085524;27;20461;-87
2023/09/25 07:05:06;;;;;;;12.13;11.00;;;12.60;1.00;;;;;;5114826;27;20534;-82
2023/09/25 07:07:36;;;;;;;11.33;10.27;;;12.70;1.00;;;;;;5116324;27;20470;-85
2023/09/25 07:10:06;;;;;;;9.83;8.90;;;12.90;1.00;;;;;;5118881;27;20473;-87
2023/09/25 07:13:06;;;;;;;14.63;9.83;;;13.00;1.00;;;;;;5109065;27;20434;-87
2023/09/25 07:15:40;;;;;;;11.20;10.10;;;13.20;1.00;;;;;;5092676;28;20453;-88
2023/09/25 07:18:12;;;;;;;9.80;8.90;;;13.40;1.00;;;;;;5121686;27;20539;-89
2023/09/25 07:20:39;;;;;;;11.37;8.97;;;13.60;1.00;;;;;;5119246;27;20447;-86
2023/09/25 07:23:10;;;;;;;9.90;8.90;;;13.80;1.00;;;;;;5107128;27;20439;-83
2023/09/25 07:26:07;;;;;;;10.23;9.33;;;13.90;1.00;;;;;;5116110;27;20490;-86
2023/09/25 07:28:40;;;;;;;11.87;8.57;;;14.10;1.00;;;;;;5121475;27;21332;-85
2023/09/25 07:31:38;;;;;;;9.40;8.50;;;14.10;1.00;;;;;;5126504;27;20416;-85
2023/09/25 07:34:08;;;;;;;10.70;9.60;;;14.20;1.00;;;;;;5079181;27;20455;-88
2023/09/25 07:36:37;;;;;;;10.87;9.73;;;14.30;1.00;;;;;;5125984;27;20423;-82
2023/09/25 07:39:05;;;;;;;9.60;8.70;;;14.50;1.00;;;;;;5109617;27;21004;-90
2023/09/25 07:41:32;;;;;;;9.60;8.70;;;14.60;1.00;;;;;;5116447;28;20523;-82
2023/09/25 07:44:05;;;;;;;9.47;8.50;;;14.70;1.00;;;;;;5109634;27;20975;-80
2023/09/25 07:46:33;;;;;;;9.63;8.40;;;14.90;1.00;;;;;;5114363;27;20464;-82
2023/09/25 07:49:02;;;;;;;10.13;8.73;;;15.00;1.00;;;;;;5115916;27;21035;-88
2023/09/25 07:51:30;;;;;;;11.63;9.40;;;15.20;1.00;;;;;;5108637;27;20463;-87
2023/09/25 07:54:06;;;;;;;10.63;8.07;;;15.30;1.00;;;;;;5116515;28;20471;-84
2023/09/25 07:56:33;;;;;;;9.57;8.13;;;15.50;1.00;;;;;;5110304;27;20475;-85
2023/09/25 07:59:02;;;;;;;7.80;7.10;;;15.70;1.00;;;;;;5113448;27;20471;-89
2023/09/25 08:01:30;;;;;;;12.07;8.67;;;15.80;1.00;;;;;;5107331;27;20425;-86
2023/09/25 08:04:06;;;;;;;9.40;8.50;;;15.90;1.00;;;;;;5114509;27;20455;-88
2023/09/25 08:06:35;;;;;;;8.30;7.60;;;16.00;1.00;;;;;;5078855;27;20473;-83
2023/09/25 08:09:03;;;;;;;10.07;9.13;;;16.20;1.00;;;;;;5099224;27;20482;-83
2023/09/25 08:11:33;;;;;;;9.13;8.03;;;16.20;1.00;;;;;;5110615;28;20509;-84
2023/09/25 08:14:05;;;;;;;8.70;6.83;;;16.40;1.00;;;;;;5099882;27;21243;-84
2023/09/25 08:16:33;;;;;;;7.83;6.30;;;16.50;1.00;;;;;;5109722;27;20535;-87
2023/09/25 08:19:00;;;;;;;10.23;7.10;;;16.60;1.00;;;;;;5108950;27;20514;-82
2023/09/25 08:21:31;;;;;;;10.57;7.00;;;16.60;1.00;;;;;;5107533;27;20493;-82
2023/09/25 08:23:58;;;;;;;12.47;11.17;;;16.70;1.00;;;;;;5098972;27;20453;-81
2023/09/25 08:26:25;;;;;;;7.17;6.57;;;16.90;1.00;;;;;;5109150;27;20457;-83
2023/09/25 08:28:52;;;;;;;6.63;6.10;;;17.00;1.00;;;;;;5107634;27;20460;-81
2023/09/25 08:31:22;;;;;;;6.27;5.70;;;17.20;1.00;;;;;;5109841;27;20582;-82
2023/09/25 08:33:49;;;;;;;6.60;6.00;;;17.30;1.00;;;;;;5107334;27;21240;-81
2023/09/25 08:36:26;;;;;;;7.10;6.40;;;17.40;1.00;;;;;;5110408;27;20506;-82
2023/09/25 08:38:57;;;;;;;6.47;5.80;;;17.50;1.00;;;;;;5073882;28;20455;-81
2023/09/25 08:41:27;;;;;;;6.00;5.50;;;17.70;1.00;;;;;;5107391;27;20551;-81
2023/09/25 08:43:55;;;;;;;6.43;5.67;;;17.90;1.00;;;;;;5107665;27;20638;-81
2023/09/25 08:46:25;;;;;;;6.20;5.30;;;18.00;1.00;;;;;;5109360;27;20627;-80
2023/09/25 08:49:15;;;;;;;6.50;5.57;;;18.20;1.00;;;;;;5086588;28;20472;-81
2023/09/25 08:54:23;;;;;;;6.13;5.00;;;18.60;1.00;;;;;;5089570;28;20897;-84
2023/09/25 08:56:53;;;;;;;6.00;4.73;;;18.70;1.00;;;;;;5108550;28;20577;-82
2023/09/25 08:59:21;;;;;;;5.53;5.07;;;18.80;1.00;;;;;;5108895;28;20918;-83
2023/09/25 09:02:02;;;;;;;5.33;4.93;;;19.10;1.00;;;;;;5109937;28;21337;-85
2023/09/25 09:04:41;;;;;;;6.27;5.67;;;19.60;1.00;;;;;;5102637;27;20541;-82
2023/09/25 09:07:29;;;;;;;5.33;4.83;;;20.60;1.00;;;;;;5071760;28;20458;-81
2023/09/25 09:09:58;;;;;;;5.10;4.60;;;22.40;1.00;;;;;;5085418;28;20485;-81
2023/09/25 09:12:38;;;;;;;4.90;4.40;;;23.90;1.00;;;;;;5088747;28;20450;-82
2023/09/25 09:15:23;;;;;;;5.33;4.83;;;25.00;1.00;;;;;;5071342;28;20444;-83
2023/09/25 09:17:52;;;;;;;4.70;4.30;;;26.00;1.00;;;;;;5085031;28;21012;-85
2023/09/25 09:20:24;;;;;;;5.23;4.73;;;26.80;1.00;;;;;;5087391;28;20634;-85
2023/09/25 09:22:56;;;;;;;6.70;4.63;;;27.20;1.00;;;;;;5086501;28;20574;-82
2023/09/25 09:25:27;;;;;;;5.43;5.03;;;27.70;1.00;;;;;;5086229;28;20433;-81
2023/09/25 09:27:58;;;;;;;5.20;4.20;;;28.40;1.00;;;;;;5084509;28;20588;-80
2023/09/25 09:30:26;;;;;;;6.40;5.87;;;29.10;1.00;;;;;;5080248;28;20525;-80
2023/09/25 09:32:54;;;;;;;5.77;5.20;;;28.60;1.00;;;;;;5085382;28;20466;-82
2023/09/25 09:35:24;;;;;;;6.27;4.90;;;28.90;1.00;;;;;;5087133;28;20476;-81
2023/09/25 09:37:53;;;;;;;5.73;5.00;;;29.20;1.00;;;;;;5065942;28;21093;-81
2023/09/25 09:40:21;;;;;;;7.20;6.60;;;29.40;1.00;;;;;;5088781;28;20824;-81
2023/09/25 09:42:49;;;;;;;7.80;5.70;;;29.30;1.00;;;;;;5085904;28;20464;-81
2023/09/25 09:45:17;;;;;;;6.07;5.40;;;29.20;1.00;;;;;;5088823;28;20828;-80
2023/09/25 09:47:46;;;;;;;6.63;5.90;;;29.40;1.00;;;;;;5084466;28;20568;-83
2023/09/25 09:50:19;;;;;;;6.40;5.90;;;28.90;1.00;;;;;;5085996;28;20537;-80
2023/09/25 09:52:49;;;;;;;6.40;5.90;;;29.00;1.00;;;;;;5089456;28;20428;-82
2023/09/25 09:55:17;;;;;;;6.53;5.97;;;28.50;1.00;;;;;;5088503;28;20419;-83
2023/09/25 09:57:54;;;;;;;5.57;5.07;;;27.80;1.00;;;;;;5075855;27;20549;-86
2023/09/25 10:00:27;;;;;;;5.63;5.00;;;28.20;1.00;;;;;;5082778;28;20468;-80
2023/09/25 10:02:55;;;;;;;5.30;4.80;;;28.20;1.00;;;;;;5086812;28;20460;-83
2023/09/25 10:05:52;;;;;;;5.07;4.63;;;28.10;1.00;;;;;;5068535;28;20469;-82
2023/09/25 10:08:21;;;;;;;4.90;4.53;;;28.40;1.00;;;;;;5086538;28;20445;-79
2023/09/25 10:10:51;;;;;;;4.30;3.90;;;28.60;1.00;;;;;;5083956;28;20543;-80
2023/09/25 10:13:24;;;;;;;5.93;4.60;;;29.80;1.00;;;;;;5072673;28;20463;-84
2023/09/25 10:15:59;;;;;;;4.40;4.00;;;31.00;1.00;;;;;;5080637;28;20455;-83
2023/09/25 10:18:29;;;;;;;4.73;3.90;;;32.50;1.00;;;;;;5090560;28;20470;-83
2023/09/25 10:21:08;;;;;;;4.97;4.50;;;33.70;1.00;;;;;;5085934;28;20517;-81
2023/09/25 10:23:36;;;;;;;4.23;3.93;;;33.40;1.00;;;;;;5086430;28;20462;-81
2023/09/25 10:26:04;;;;;;;4.30;3.90;;;33.30;1.00;;;;;;5085763;28;20454;-82
2023/09/25 10:28:37;;;;;;;4.87;4.40;;;33.40;1.00;;;;;;5089591;28;20958;-82
2023/09/25 10:31:19;;;;;;;4.13;3.83;;;33.50;1.00;;;;;;5071814;28;20475;-82
2023/09/25 10:33:58;;;;;;;4.63;3.53;;;33.60;1.00;;;;;;5067414;28;20984;-84
2023/09/25 10:36:42;;;;;;;3.93;3.50;;;33.50;1.00;;;;;;5087115;28;20589;-81
2023/09/25 10:39:13;;;;;;;4.60;3.60;;;32.60;1.00;;;;;;5082319;28;20450;-83
2023/09/25 10:41:41;;;;;;;3.47;3.17;;;32.90;1.00;;;;;;5088456;28;20466;-83
2023/09/25 10:44:15;;;;;;;3.83;3.53;;;33.00;1.00;;;;;;5087458;28;20470;-83
2023/09/25 10:46:43;;;;;;;3.77;3.47;;;33.50;1.00;;;;;;5089326;28;20457;-84
2023/09/25 10:49:12;;;;;;;4.70;3.30;;;34.00;1.00;;;;;;5090477;28;20475;-85
2023/09/25 10:51:40;;;;;;;3.87;3.57;;;34.10;1.00;;;;;;5092249;28;20496;-83
2023/09/25 10:54:08;;;;;;;3.80;3.50;;;33.90;1.00;;;;;;5093428;28;20488;-84
2023/09/25 10:56:38;;;;;;;4.50;3.30;;;34.30;1.00;;;;;;5089413;28;20959;-83
2023/09/25 10:59:05;;;;;;;3.80;3.50;;;34.10;1.00;;;;;;5089168;28;20536;-83
2023/09/25 11:01:32;;;;;;;3.93;3.37;;;33.80;1.00;;;;;;5094385;28;20454;-84
2023/09/25 11:04:01;;;;;;;3.83;3.53;;;33.50;1.00;;;;;;5090055;28;20519;-82
2023/09/25 11:06:28;;;;;;;3.33;3.03;;;33.70;1.00;;;;;;5076531;28;21121;-87
2023/09/25 11:09:08;;;;;;;3.57;3.27;;;34.10;1.00;;;;;;5085918;28;20414;-86
2023/09/25 11:11:35;;;;;;;3.60;2.80;;;34.40;1.00;;;;;;5075162;28;20443;-85
2023/09/25 11:14:03;;;;;;;3.60;3.33;;;35.50;1.00;;;;;;5089254;28;20451;-85
2023/09/25 11:16:33;;;;;;;3.23;2.93;;;35.50;1.00;;;;;;5091344;28;20470;-82
2023/09/25 11:19:12;;;;;;;3.43;3.07;;;34.60;1.00;;;;;;5087071;27;20567;-81
2023/09/25 11:21:41;;;;;;;4.40;2.87;;;34.80;1.00;;;;;;5088179;27;20489;-82
2023/09/25 11:24:11;;;;;;;8.30;3.97;;;35.30;1.00;;;;;;5096223;28;21458;-84
2023/09/25 11:26:41;;;;;;;3.93;3.50;;;34.80;1.00;;;;;;5086241;27;20591;-80
2023/09/25 11:29:09;;;;;;;3.17;2.97;;;33.80;1.00;;;;;;5092169;28;20883;-85
2023/09/25 11:31:37;;;;;;;3.97;3.00;;;33.70;1.00;;;;;;5092789;27;20946;-82
2023/09/25 11:34:07;;;;;;;4.07;2.90;;;33.40;1.00;;;;;;5088655;28;20510;-82
2023/09/25 11:36:34;;;;;;;2.83;2.63;;;35.00;1.00;;;;;;5088353;27;20573;-81
2023/09/25 11:39:04;;;;;;;2.80;2.60;;;36.00;1.00;;;;;;5091126;28;20526;-81
2023/09/25 11:41:33;;;;;;;3.33;3.13;;;36.60;1.00;;;;;;5091375;28;20507;-82
2023/09/25 11:44:01;;;;;;;4.03;3.50;;;36.40;1.00;;;;;;5093439;28;20466;-81
2023/09/25 11:46:28;;;;;;;3.17;2.97;;;36.80;1.00;;;;;;5091808;28;20458;-83
2023/09/25 11:48:55;;;;;;;2.80;2.60;;;36.60;1.00;;;;;;5085535;28;22415;-83
2023/09/25 11:51:22;;;;;;;3.63;3.33;;;36.20;1.00;;;;;;5088661;28;20997;-85
2023/09/25 11:53:49;;;;;;;3.33;3.03;;;36.10;1.00;;;;;;5089644;28;20458;-86
2023/09/25 11:56:16;;;;;;;3.97;3.67;;;35.10;1.00;;;;;;5092202;28;20571;-84
2023/09/25 11:58:45;;;;;;;4.37;3.13;;;35.70;1.00;;;;;;5087652;28;20553;-85
2023/09/25 12:01:12;;;;;;;3.43;3.23;;;36.20;1.00;;;;;;5092043;28;20861;-85
2023/09/25 12:03:40;;;;;;;3.47;3.20;;;35.90;1.00;;;;;;5090010;28;20923;-87
2023/09/25 12:06:07;;;;;;;3.50;3.20;;;36.20;1.00;;;;;;5096398;27;20472;-85
2023/09/25 12:08:34;;;;;;;3.77;3.30;;;36.20;1.00;;;;;;5111976;27;20474;-86
2023/09/25 12:14:19;;;;;;;3.00;2.80;;;35.00;1.00;;;;;;5073086;27;20499;-85
2023/09/25 12:16:48;;;;;;;3.33;3.03;;;35.80;1.00;;;;;;5115719;27;20461;-85
2023/09/25 12:19:16;;;;;;;2.93;2.73;;;36.90;1.00;;;;;;5110142;27;20465;-85
2023/09/25 12:21:43;;;;;;;2.83;2.63;;;36.30;1.00;;;;;;5110280;27;20438;-86
2023/09/25 12:24:11;;;;;;;3.73;2.83;;;36.10;1.00;;;;;;5107870;27;20462;-83
2023/09/25 12:26:39;;;;;;;2.83;2.63;;;36.80;1.00;;;;;;5113197;27;20450;-82
2023/09/25 12:29:07;;;;;;;4.47;3.20;;;37.30;1.00;;;;;;5094054;27;20505;-81
2023/09/25 12:31:36;;;;;;;2.87;2.67;;;37.60;1.00;;;;;;5110280;28;20455;-81
2023/09/25 12:34:03;;;;;;;3.07;2.50;;;38.20;1.00;;;;;;5110469;27;20450;-81
2023/09/25 12:36:30;;;;;;;2.90;2.70;;;38.80;1.00;;;;;;5106845;27;20477;-81
2023/09/25 12:38:57;;;;;;;6.00;3.17;;;37.90;1.00;;;;;;5108002;28;20442;-83
2023/09/25 12:41:24;;;;;;;2.60;2.40;;;35.60;1.00;;;;;;5090452;27;20465;-83
2023/09/25 12:43:53;;;;;;;3.53;3.23;;;34.00;1.00;;;;;;5108886;27;20559;-81
2023/09/25 12:46:20;;;;;;;2.67;2.47;;;34.90;1.00;;;;;;5108040;27;20971;-80
2023/09/25 12:48:49;;;;;;;3.10;2.80;;;35.80;1.00;;;;;;5093904;27;20475;-84
2023/09/25 12:51:18;;;;;;;2.80;2.60;;;34.50;1.00;;;;;;5106049;27;20426;-81
2023/09/25 12:53:47;;;;;;;3.13;2.93;;;32.80;1.00;;;;;;5104810;27;20481;-81
2023/09/25 12:56:14;;;;;;;3.20;2.40;;;31.20;1.00;;;;;;5108715;27;20470;-82
2023/09/25 12:58:41;;;;;;;3.63;3.30;;;30.10;1.00;;;;;;5109053;27;20489;-82
2023/09/25 13:01:08;;;;;;;2.90;2.70;;;29.40;1.00;;;;;;5105093;27;20477;-83
2023/09/25 13:03:35;;;;;;;4.80;3.20;;;28.60;1.00;;;;;;5109095;27;20503;-84
2023/09/25 13:06:04;;;;;;;3.03;2.70;;;27.40;1.00;;;;;;5107203;27;21185;-87
2023/09/25 13:08:33;;;;;;;3.53;3.00;;;26.40;1.00;;;;;;5106251;27;20463;-84
2023/09/25 13:10:59;;;;;;;3.10;2.80;;;25.80;1.00;;;;;;5106365;27;20456;-82